sensor_id;sensor_type;location;lat;lon;timestamp;P1;durP1;ratioP1;P2;durP2;ratioP2
74912;SDS011;63878;55.624;37.304;2023-06-14T00:05:42;12.00;;;4.27;;
74912;SDS011;63878;55.624;37.304;2023-06-14T00:15:42;7.82;;;3.60;;
74912;SDS011;63878;55.624;37.304;2023-06-14T00:25:43;9.32;;;4.28;;
74912;SDS011;63878;55.624;37.304;2023-06-14T00:35:43;6.23;;;3.57;;
74912;SDS011;63878;55.624;37.304;2023-06-14T00:45:44;5.18;;;3.70;;
74912;SDS011;63878;55.624;37.304;2023-06-14T00:55:44;8.68;;;3.72;;
74912;SDS011;63878;55.624;37.304;2023-06-14T01:05:45;7.85;;;3.78;;
74912;SDS011;63878;55.624;37.304;2023-06-14T01:15:46;8.70;;;4.10;;
74912;SDS011;63878;55.624;37.304;2023-06-14T01:25:48;5.38;;;3.78;;
74912;SDS011;63878;55.624;37.304;2023-06-14T01:35:50;13.10;;;5.07;;
74912;SDS011;63878;55.624;37.304;2023-06-14T01:45:51;11.30;;;4.80;;
74912;SDS011;63878;55.624;37.304;2023-06-14T01:55:54;9.85;;;4.18;;
74912;SDS011;63878;55.624;37.304;2023-06-14T02:05:55;14.70;;;7.33;;
74912;SDS011;63878;55.624;37.304;2023-06-14T02:15:55;11.48;;;5.38;;
74912;SDS011;63878;55.624;37.304;2023-06-14T02:25:56;14.50;;;6.55;;
74912;SDS011;63878;55.624;37.304;2023-06-14T02:35:56;10.60;;;5.80;;
74912;SDS011;63878;55.624;37.304;2023-06-14T02:45:57;12.15;;;5.43;;
74912;SDS011;63878;55.624;37.304;2023-06-14T02:55:58;10.50;;;5.40;;
74912;SDS011;63878;55.624;37.304;2023-06-14T03:05:58;9.43;;;5.53;;
74912;SDS011;63878;55.624;37.304;2023-06-14T03:15:59;14.75;;;6.45;;
74912;SDS011;63878;55.624;37.304;2023-06-14T03:26:00;13.30;;;5.83;;
74912;SDS011;63878;55.624;37.304;2023-06-14T03:36:01;11.80;;;6.47;;
74912;SDS011;63878;55.624;37.304;2023-06-14T03:46:02;11.35;;;6.00;;
74912;SDS011;63878;55.624;37.304;2023-06-14T03:56:02;11.98;;;6.03;;
74912;SDS011;63878;55.624;37.304;2023-06-14T04:06:04;10.23;;;6.87;;
74912;SDS011;63878;55.624;37.304;2023-06-14T04:16:05;15.48;;;7.22;;
74912;SDS011;63878;55.624;37.304;2023-06-14T04:26:05;13.60;;;7.17;;
74912;SDS011;63878;55.624;37.304;2023-06-14T04:36:06;9.98;;;5.13;;
74912;SDS011;63878;55.624;37.304;2023-06-14T04:46:06;10.70;;;4.97;;
74912;SDS011;63878;55.624;37.304;2023-06-14T04:56:07;8.40;;;5.57;;
74912;SDS011;63878;55.624;37.304;2023-06-14T05:06:07;7.78;;;4.57;;
74912;SDS011;63878;55.624;37.304;2023-06-14T05:16:08;6.32;;;3.60;;
74912;SDS011;63878;55.624;37.304;2023-06-14T05:26:08;9.20;;;5.15;;
74912;SDS011;63878;55.624;37.304;2023-06-14T05:36:08;9.70;;;4.97;;
74912;SDS011;63878;55.624;37.304;2023-06-14T05:46:09;7.03;;;3.92;;
74912;SDS011;63878;55.624;37.304;2023-06-14T05:56:09;10.68;;;4.57;;
74912;SDS011;63878;55.624;37.304;2023-06-14T06:06:10;13.35;;;4.40;;
74912;SDS011;63878;55.624;37.304;2023-06-14T06:16:10;4.57;;;2.90;;
74912;SDS011;63878;55.624;37.304;2023-06-14T06:26:11;5.53;;;2.58;;
74912;SDS011;63878;55.624;37.304;2023-06-14T06:36:11;6.85;;;3.38;;
74912;SDS011;63878;55.624;37.304;2023-06-14T06:46:12;4.50;;;2.38;;
74912;SDS011;63878;55.624;37.304;2023-06-14T06:56:12;10.17;;;3.80;;
74912;SDS011;63878;55.624;37.304;2023-06-14T07:06:13;5.15;;;2.58;;
74912;SDS011;63878;55.624;37.304;2023-06-14T07:16:13;2.75;;;2.03;;
74912;SDS011;63878;55.624;37.304;2023-06-14T07:26:14;6.70;;;3.13;;
74912;SDS011;63878;55.624;37.304;2023-06-14T07:36:14;4.68;;;3.15;;
74912;SDS011;63878;55.624;37.304;2023-06-14T07:46:15;8.57;;;3.63;;
74912;SDS011;63878;55.624;37.304;2023-06-14T07:56:16;5.53;;;3.00;;
74912;SDS011;63878;55.624;37.304;2023-06-14T08:06:16;7.88;;;3.35;;
74912;SDS011;63878;55.624;37.304;2023-06-14T08:16:17;4.90;;;2.65;;
74912;SDS011;63878;55.624;37.304;2023-06-14T08:26:17;5.10;;;2.78;;
74912;SDS011;63878;55.624;37.304;2023-06-14T08:36:17;2.80;;;2.10;;
74912;SDS011;63878;55.624;37.304;2023-06-14T08:46:18;6.32;;;3.20;;
74912;SDS011;63878;55.624;37.304;2023-06-14T08:56:19;5.47;;;2.80;;
74912;SDS011;63878;55.624;37.304;2023-06-14T09:06:19;4.93;;;2.50;;
74912;SDS011;63878;55.624;37.304;2023-06-14T09:16:21;7.25;;;3.40;;
74912;SDS011;63878;55.624;37.304;2023-06-14T09:26:21;3.75;;;2.42;;
74912;SDS011;63878;55.624;37.304;2023-06-14T09:36:22;2.33;;;1.73;;
74912;SDS011;63878;55.624;37.304;2023-06-14T09:46:24;4.65;;;3.55;;
74912;SDS011;63878;55.624;37.304;2023-06-14T09:56:28;7.53;;;3.30;;
74912;SDS011;63878;55.624;37.304;2023-06-14T10:06:30;3.95;;;3.00;;
74912;SDS011;63878;55.624;37.304;2023-06-14T10:16:32;6.00;;;3.45;;
74912;SDS011;63878;55.624;37.304;2023-06-14T10:26:40;6.70;;;2.60;;
74912;SDS011;63878;55.624;37.304;2023-06-14T10:37:00;4.47;;;3.03;;
74912;SDS011;63878;55.624;37.304;2023-06-14T10:47:01;7.10;;;3.03;;
74912;SDS011;63878;55.624;37.304;2023-06-14T10:57:01;5.90;;;3.70;;
74912;SDS011;63878;55.624;37.304;2023-06-14T11:17:36;7.47;;;3.17;;
74912;SDS011;63878;55.624;37.304;2023-06-14T11:27:36;3.40;;;2.47;;
74912;SDS011;63878;55.624;37.304;2023-06-14T11:37:37;4.32;;;2.88;;
74912;SDS011;63878;55.624;37.304;2023-06-14T11:47:38;5.47;;;3.40;;
74912;SDS011;63878;55.624;37.304;2023-06-14T11:57:40;4.68;;;2.75;;
74912;SDS011;63878;55.624;37.304;2023-06-14T12:07:40;2.23;;;1.43;;
74912;SDS011;63878;55.624;37.304;2023-06-14T12:17:41;1.73;;;1.63;;
74912;SDS011;63878;55.624;37.304;2023-06-14T12:27:42;4.78;;;2.72;;
74912;SDS011;63878;55.624;37.304;2023-06-14T12:37:43;3.20;;;1.95;;
74912;SDS011;63878;55.624;37.304;2023-06-14T12:47:43;6.90;;;3.38;;
74912;SDS011;63878;55.624;37.304;2023-06-14T12:57:44;7.45;;;3.60;;
74912;SDS011;63878;55.624;37.304;2023-06-14T13:07:44;3.63;;;3.00;;
74912;SDS011;63878;55.624;37.304;2023-06-14T13:17:45;6.20;;;3.33;;
74912;SDS011;63878;55.624;37.304;2023-06-14T13:27:45;4.85;;;2.92;;
74912;SDS011;63878;55.624;37.304;2023-06-14T13:37:46;3.45;;;2.47;;
74912;SDS011;63878;55.624;37.304;2023-06-14T13:47:46;5.78;;;3.13;;
74912;SDS011;63878;55.624;37.304;2023-06-14T13:57:47;4.93;;;2.47;;
74912;SDS011;63878;55.624;37.304;2023-06-14T14:07:47;3.22;;;2.00;;
74912;SDS011;63878;55.624;37.304;2023-06-14T14:17:48;3.40;;;1.63;;
74912;SDS011;63878;55.624;37.304;2023-06-14T14:27:48;3.15;;;2.47;;
74912;SDS011;63878;55.624;37.304;2023-06-14T14:37:48;3.83;;;2.45;;
74912;SDS011;63878;55.624;37.304;2023-06-14T14:47:49;6.15;;;3.13;;
74912;SDS011;63878;55.624;37.304;2023-06-14T14:57:49;3.30;;;2.78;;
74912;SDS011;63878;55.624;37.304;2023-06-14T15:07:50;4.10;;;2.60;;
74912;SDS011;63878;55.624;37.304;2023-06-14T15:17:50;6.22;;;3.35;;
74912;SDS011;63878;55.624;37.304;2023-06-14T15:27:51;4.60;;;2.40;;
74912;SDS011;63878;55.624;37.304;2023-06-14T15:37:51;4.25;;;2.83;;
74912;SDS011;63878;55.624;37.304;2023-06-14T15:47:52;5.28;;;2.67;;
74912;SDS011;63878;55.624;37.304;2023-06-14T15:57:52;6.78;;;3.45;;
74912;SDS011;63878;55.624;37.304;2023-06-14T16:07:53;5.80;;;3.00;;
74912;SDS011;63878;55.624;37.304;2023-06-14T16:17:53;4.60;;;2.60;;
74912;SDS011;63878;55.624;37.304;2023-06-14T16:27:54;7.20;;;2.85;;
74912;SDS011;63878;55.624;37.304;2023-06-14T16:37:54;3.70;;;2.20;;
74912;SDS011;63878;55.624;37.304;2023-06-14T16:47:54;4.13;;;3.05;;
74912;SDS011;63878;55.624;37.304;2023-06-14T16:57:55;5.43;;;3.70;;
74912;SDS011;63878;55.624;37.304;2023-06-14T17:07:55;6.20;;;3.30;;
74912;SDS011;63878;55.624;37.304;2023-06-14T17:17:56;4.72;;;2.95;;
74912;SDS011;63878;55.624;37.304;2023-06-14T17:27:56;8.98;;;5.10;;
74912;SDS011;63878;55.624;37.304;2023-06-14T17:37:57;5.32;;;3.30;;
74912;SDS011;63878;55.624;37.304;2023-06-14T17:47:58;6.87;;;3.80;;
74912;SDS011;63878;55.624;37.304;2023-06-14T17:57:58;9.73;;;3.70;;
74912;SDS011;63878;55.624;37.304;2023-06-14T18:08:00;10.48;;;4.32;;
74912;SDS011;63878;55.624;37.304;2023-06-14T18:18:00;5.45;;;3.50;;
74912;SDS011;63878;55.624;37.304;2023-06-14T18:28:01;7.50;;;3.40;;
74912;SDS011;63878;55.624;37.304;2023-06-14T18:38:01;6.25;;;3.45;;
74912;SDS011;63878;55.624;37.304;2023-06-14T18:48:01;5.88;;;3.20;;
74912;SDS011;63878;55.624;37.304;2023-06-14T18:58:02;7.05;;;3.70;;
74912;SDS011;63878;55.624;37.304;2023-06-14T19:08:02;5.50;;;2.40;;
74912;SDS011;63878;55.624;37.304;2023-06-14T19:18:03;6.60;;;2.40;;
74912;SDS011;63878;55.624;37.304;2023-06-14T19:28:04;6.95;;;3.00;;
74912;SDS011;63878;55.624;37.304;2023-06-14T19:38:04;9.00;;;3.30;;
74912;SDS011;63878;55.624;37.304;2023-06-14T19:48:05;4.82;;;3.20;;
74912;SDS011;63878;55.624;37.304;2023-06-14T19:58:05;5.03;;;2.83;;
74912;SDS011;63878;55.624;37.304;2023-06-14T20:08:06;6.25;;;3.22;;
74912;SDS011;63878;55.624;37.304;2023-06-14T20:18:06;6.00;;;3.25;;
74912;SDS011;63878;55.624;37.304;2023-06-14T20:28:07;7.55;;;3.28;;
74912;SDS011;63878;55.624;37.304;2023-06-14T20:38:08;6.88;;;3.20;;
74912;SDS011;63878;55.624;37.304;2023-06-14T20:48:09;5.03;;;3.35;;
74912;SDS011;63878;55.624;37.304;2023-06-14T20:58:09;4.03;;;2.42;;
74912;SDS011;63878;55.624;37.304;2023-06-14T21:08:10;8.90;;;3.30;;
74912;SDS011;63878;55.624;37.304;2023-06-14T21:18:10;4.85;;;3.15;;
74912;SDS011;63878;55.624;37.304;2023-06-14T21:28:11;7.82;;;3.85;;
74912;SDS011;63878;55.624;37.304;2023-06-14T21:38:11;8.07;;;3.88;;
74912;SDS011;63878;55.624;37.304;2023-06-14T21:48:11;10.07;;;3.75;;
74912;SDS011;63878;55.624;37.304;2023-06-14T21:58:12;5.97;;;3.25;;
74912;SDS011;63878;55.624;37.304;2023-06-14T22:08:13;5.90;;;3.60;;
74912;SDS011;63878;55.624;37.304;2023-06-14T22:18:14;7.68;;;3.80;;
74912;SDS011;63878;55.624;37.304;2023-06-14T22:28:14;6.60;;;4.00;;
74912;SDS011;63878;55.624;37.304;2023-06-14T22:38:15;8.05;;;3.70;;
74912;SDS011;63878;55.624;37.304;2023-06-14T22:48:15;9.10;;;3.78;;
74912;SDS011;63878;55.624;37.304;2023-06-14T22:58:16;9.17;;;4.40;;
74912;SDS011;63878;55.624;37.304;2023-06-14T23:08:16;7.30;;;3.88;;
74912;SDS011;63878;55.624;37.304;2023-06-14T23:18:17;9.20;;;3.78;;
74912;SDS011;63878;55.624;37.304;2023-06-14T23:28:17;6.78;;;3.70;;
74912;SDS011;63878;55.624;37.304;2023-06-14T23:38:18;10.45;;;3.92;;
74912;SDS011;63878;55.624;37.304;2023-06-14T23:48:19;10.82;;;3.83;;
74912;SDS011;63878;55.624;37.304;2023-06-14T23:58:20;8.68;;;4.00;;
